National Weather Service Raw Text Product

Displaying AFOS PIL: TAFDSM Received: 2018-02-09 08:01 UTC


048 
FTUS43 KDMX 090801 AAA
TAFDSM
TAF AMD
KDSM 090801Z 0908/1006 04012KT P6SM -SN BKN012 OVC040
     FM090900 03012KT 3SM -SN BKN015 OVC040
     FM091200 03010G17KT P6SM OVC015
     FM091800 02011KT P6SM SCT030 BKN100
     FM100300 01010KT P6SM VCSH OVC030=